SCKD weather

El Cardal Airport
Rio Bueno, Los Ríos Region, Chile

Public forecast

Using degrees Celsius for public forecast. Weather courtesy of forecast.io.

Closest aviation weather report (METAR) to El Cardal Airport

Closest report is Cañal Bajo Carlos - Hott Siebert Airport, 19.2 nm (35.5 km) WSW. Retrieved 2019/12/06 15:00 UTC (20 minutes ago):

SCJO 061500Z 23006KT 9999 OVC017 13/09 Q1022

Closest aviation forecast (TAF) to El Cardal Airport

Closest forecast is Cañal Bajo Carlos - Hott Siebert Airport, 19.2 nm (35.5 km) WSW. Retrieved 2019/12/06 12:33 UTC (3 hours ago):

TAF SCJO 061015Z 0612/0624 19010KT 9999 BKN020 TN11/0612Z TX18/0619Z BECMG 0617/0619 SCT035